sensor_id;sensor_type;location;lat;lon;timestamp;P1;durP1;ratioP1;P2;durP2;ratioP2
44456;SDS011;30159;49.316;8.558;2022-10-19T00:02:09;42.17;;;11.73;;
44456;SDS011;30159;49.316;8.558;2022-10-19T00:04:37;45.73;;;10.53;;
44456;SDS011;30159;49.316;8.558;2022-10-19T00:07:03;34.63;;;9.40;;
44456;SDS011;30159;49.316;8.558;2022-10-19T00:09:30;20.73;;;10.37;;
44456;SDS011;30159;49.316;8.558;2022-10-19T00:11:56;34.80;;;10.67;;
44456;SDS011;30159;49.316;8.558;2022-10-19T00:14:23;72.73;;;12.43;;
44456;SDS011;30159;49.316;8.558;2022-10-19T00:16:50;36.90;;;10.27;;
44456;SDS011;30159;49.316;8.558;2022-10-19T00:19:19;27.40;;;10.80;;
44456;SDS011;30159;49.316;8.558;2022-10-19T00:21:49;19.00;;;12.00;;
44456;SDS011;30159;49.316;8.558;2022-10-19T00:24:16;47.10;;;13.00;;
44456;SDS011;30159;49.316;8.558;2022-10-19T00:26:43;16.87;;;9.80;;
44456;SDS011;30159;49.316;8.558;2022-10-19T00:29:09;43.00;;;11.50;;
44456;SDS011;30159;49.316;8.558;2022-10-19T00:31:37;41.33;;;12.77;;
44456;SDS011;30159;49.316;8.558;2022-10-19T00:34:04;28.67;;;14.03;;
44456;SDS011;30159;49.316;8.558;2022-10-19T00:36:31;29.70;;;12.33;;
44456;SDS011;30159;49.316;8.558;2022-10-19T00:39:00;29.70;;;11.67;;
44456;SDS011;30159;49.316;8.558;2022-10-19T00:41:30;33.77;;;12.20;;
44456;SDS011;30159;49.316;8.558;2022-10-19T00:43:59;27.43;;;12.53;;
44456;SDS011;30159;49.316;8.558;2022-10-19T00:46:28;43.87;;;13.10;;
44456;SDS011;30159;49.316;8.558;2022-10-19T00:48:57;33.13;;;12.33;;
44456;SDS011;30159;49.316;8.558;2022-10-19T00:51:26;33.63;;;11.67;;
44456;SDS011;30159;49.316;8.558;2022-10-19T00:53:54;22.00;;;9.80;;
44456;SDS011;30159;49.316;8.558;2022-10-19T00:56:22;27.33;;;11.10;;
44456;SDS011;30159;49.316;8.558;2022-10-19T00:58:49;24.20;;;10.10;;
44456;SDS011;30159;49.316;8.558;2022-10-19T01:01:17;23.33;;;9.90;;
44456;SDS011;30159;49.316;8.558;2022-10-19T01:03:46;35.77;;;9.40;;
44456;SDS011;30159;49.316;8.558;2022-10-19T01:06:13;65.50;;;13.07;;
44456;SDS011;30159;49.316;8.558;2022-10-19T01:08:43;39.67;;;11.93;;
44456;SDS011;30159;49.316;8.558;2022-10-19T01:11:25;43.10;;;11.80;;
44456;SDS011;30159;49.316;8.558;2022-10-19T01:14:09;56.57;;;13.90;;
44456;SDS011;30159;49.316;8.558;2022-10-19T01:16:46;30.03;;;11.27;;
44456;SDS011;30159;49.316;8.558;2022-10-19T01:19:27;23.47;;;11.27;;
44456;SDS011;30159;49.316;8.558;2022-10-19T01:22:12;23.33;;;10.17;;
44456;SDS011;30159;49.316;8.558;2022-10-19T01:24:55;16.60;;;9.47;;
44456;SDS011;30159;49.316;8.558;2022-10-19T01:27:49;38.30;;;10.90;;
44456;SDS011;30159;49.316;8.558;2022-10-19T01:30:31;19.83;;;10.57;;
44456;SDS011;30159;49.316;8.558;2022-10-19T01:33:11;15.60;;;10.47;;
44456;SDS011;30159;49.316;8.558;2022-10-19T01:35:49;21.80;;;10.20;;
44456;SDS011;30159;49.316;8.558;2022-10-19T01:38:24;23.77;;;9.77;;
44456;SDS011;30159;49.316;8.558;2022-10-19T01:40:59;19.97;;;9.20;;
44456;SDS011;30159;49.316;8.558;2022-10-19T01:43:37;17.73;;;9.07;;
44456;SDS011;30159;49.316;8.558;2022-10-19T01:46:10;16.50;;;7.60;;
44456;SDS011;30159;49.316;8.558;2022-10-19T01:48:43;9.80;;;7.20;;
44456;SDS011;30159;49.316;8.558;2022-10-19T01:51:15;20.87;;;8.77;;
44456;SDS011;30159;49.316;8.558;2022-10-19T01:53:45;20.07;;;8.33;;
44456;SDS011;30159;49.316;8.558;2022-10-19T01:56:15;14.93;;;7.97;;
44456;SDS011;30159;49.316;8.558;2022-10-19T01:58:43;20.70;;;7.20;;
44456;SDS011;30159;49.316;8.558;2022-10-19T02:01:13;19.43;;;7.60;;
44456;SDS011;30159;49.316;8.558;2022-10-19T02:03:44;16.70;;;7.03;;
44456;SDS011;30159;49.316;8.558;2022-10-19T02:06:11;20.43;;;7.73;;
44456;SDS011;30159;49.316;8.558;2022-10-19T02:08:39;9.80;;;7.00;;
44456;SDS011;30159;49.316;8.558;2022-10-19T02:11:10;13.67;;;7.00;;
44456;SDS011;30159;49.316;8.558;2022-10-19T02:13:36;55.27;;;9.60;;
44456;SDS011;30159;49.316;8.558;2022-10-19T02:16:06;17.33;;;7.33;;
44456;SDS011;30159;49.316;8.558;2022-10-19T02:18:38;17.27;;;7.10;;
44456;SDS011;30159;49.316;8.558;2022-10-19T02:21:09;14.80;;;7.00;;
44456;SDS011;30159;49.316;8.558;2022-10-19T02:23:36;12.00;;;6.87;;
44456;SDS011;30159;49.316;8.558;2022-10-19T02:26:03;19.13;;;7.53;;
44456;SDS011;30159;49.316;8.558;2022-10-19T02:28:30;26.00;;;8.07;;
44456;SDS011;30159;49.316;8.558;2022-10-19T02:30:57;19.10;;;5.80;;
44456;SDS011;30159;49.316;8.558;2022-10-19T02:33:25;20.70;;;6.83;;
44456;SDS011;30159;49.316;8.558;2022-10-19T02:35:54;19.93;;;8.03;;
44456;SDS011;30159;49.316;8.558;2022-10-19T02:38:21;32.33;;;6.93;;
44456;SDS011;30159;49.316;8.558;2022-10-19T02:40:50;16.10;;;6.90;;
44456;SDS011;30159;49.316;8.558;2022-10-19T02:43:25;22.00;;;7.27;;
44456;SDS011;30159;49.316;8.558;2022-10-19T02:45:55;10.50;;;6.23;;
44456;SDS011;30159;49.316;8.558;2022-10-19T02:48:26;10.27;;;5.93;;
44456;SDS011;30159;49.316;8.558;2022-10-19T02:50:57;23.13;;;7.10;;
44456;SDS011;30159;49.316;8.558;2022-10-19T02:53:24;21.70;;;6.80;;
44456;SDS011;30159;49.316;8.558;2022-10-19T02:55:50;15.20;;;7.13;;
44456;SDS011;30159;49.316;8.558;2022-10-19T02:58:17;17.47;;;7.00;;
44456;SDS011;30159;49.316;8.558;2022-10-19T03:00:44;45.10;;;9.20;;
44456;SDS011;30159;49.316;8.558;2022-10-19T03:03:10;25.90;;;8.70;;
44456;SDS011;30159;49.316;8.558;2022-10-19T03:05:37;29.40;;;7.90;;
44456;SDS011;30159;49.316;8.558;2022-10-19T03:08:05;32.43;;;8.73;;
44456;SDS011;30159;49.316;8.558;2022-10-19T03:10:31;14.40;;;9.43;;
44456;SDS011;30159;49.316;8.558;2022-10-19T03:12:58;18.50;;;9.33;;
44456;SDS011;30159;49.316;8.558;2022-10-19T03:15:24;23.97;;;8.90;;
44456;SDS011;30159;49.316;8.558;2022-10-19T03:17:53;44.17;;;10.47;;
44456;SDS011;30159;49.316;8.558;2022-10-19T03:20:20;25.73;;;8.00;;
44456;SDS011;30159;49.316;8.558;2022-10-19T03:22:46;32.80;;;10.27;;
44456;SDS011;30159;49.316;8.558;2022-10-19T03:25:14;44.57;;;9.40;;
44456;SDS011;30159;49.316;8.558;2022-10-19T03:27:41;24.77;;;9.83;;
44456;SDS011;30159;49.316;8.558;2022-10-19T03:30:07;23.97;;;8.87;;
44456;SDS011;30159;49.316;8.558;2022-10-19T03:32:34;35.77;;;9.40;;
44456;SDS011;30159;49.316;8.558;2022-10-19T03:35:01;35.27;;;10.00;;
44456;SDS011;30159;49.316;8.558;2022-10-19T03:37:27;37.63;;;8.63;;
44456;SDS011;30159;49.316;8.558;2022-10-19T03:39:54;18.03;;;7.40;;
44456;SDS011;30159;49.316;8.558;2022-10-19T03:42:22;39.73;;;8.50;;
44456;SDS011;30159;49.316;8.558;2022-10-19T03:44:48;44.33;;;9.20;;
44456;SDS011;30159;49.316;8.558;2022-10-19T03:47:15;51.73;;;8.30;;
44456;SDS011;30159;49.316;8.558;2022-10-19T03:49:41;26.57;;;7.83;;
44456;SDS011;30159;49.316;8.558;2022-10-19T03:52:08;21.93;;;7.80;;
44456;SDS011;30159;49.316;8.558;2022-10-19T03:54:35;60.17;;;9.33;;
44456;SDS011;30159;49.316;8.558;2022-10-19T03:57:01;30.63;;;9.60;;
44456;SDS011;30159;49.316;8.558;2022-10-19T03:59:29;53.43;;;11.00;;
44456;SDS011;30159;49.316;8.558;2022-10-19T04:01:56;37.37;;;10.33;;
44456;SDS011;30159;49.316;8.558;2022-10-19T04:04:22;44.40;;;9.53;;
44456;SDS011;30159;49.316;8.558;2022-10-19T04:06:49;32.53;;;10.57;;
44456;SDS011;30159;49.316;8.558;2022-10-19T04:09:18;39.80;;;10.40;;
44456;SDS011;30159;49.316;8.558;2022-10-19T04:11:46;38.73;;;9.10;;
44456;SDS011;30159;49.316;8.558;2022-10-19T04:14:14;47.93;;;7.67;;
44456;SDS011;30159;49.316;8.558;2022-10-19T04:16:43;23.93;;;7.57;;
44456;SDS011;30159;49.316;8.558;2022-10-19T04:19:11;34.83;;;9.37;;
44456;SDS011;30159;49.316;8.558;2022-10-19T04:21:39;27.73;;;9.30;;
44456;SDS011;30159;49.316;8.558;2022-10-19T04:24:08;28.40;;;9.43;;
44456;SDS011;30159;49.316;8.558;2022-10-19T04:26:37;23.37;;;9.27;;
44456;SDS011;30159;49.316;8.558;2022-10-19T04:29:05;39.67;;;9.60;;
44456;SDS011;30159;49.316;8.558;2022-10-19T04:31:31;26.10;;;8.97;;
44456;SDS011;30159;49.316;8.558;2022-10-19T04:33:59;25.00;;;8.40;;
44456;SDS011;30159;49.316;8.558;2022-10-19T04:36:26;21.57;;;9.53;;
44456;SDS011;30159;49.316;8.558;2022-10-19T04:38:52;30.07;;;8.80;;
44456;SDS011;30159;49.316;8.558;2022-10-19T04:41:19;25.70;;;9.27;;
44456;SDS011;30159;49.316;8.558;2022-10-19T04:43:47;45.10;;;9.20;;
44456;SDS011;30159;49.316;8.558;2022-10-19T04:46:16;32.30;;;9.40;;
44456;SDS011;30159;49.316;8.558;2022-10-19T04:48:44;33.00;;;9.67;;
44456;SDS011;30159;49.316;8.558;2022-10-19T04:51:13;38.17;;;9.60;;
44456;SDS011;30159;49.316;8.558;2022-10-19T04:53:41;32.80;;;8.20;;
44456;SDS011;30159;49.316;8.558;2022-10-19T04:56:10;36.00;;;7.93;;
44456;SDS011;30159;49.316;8.558;2022-10-19T04:58:38;29.20;;;7.30;;
44456;SDS011;30159;49.316;8.558;2022-10-19T05:01:08;25.37;;;7.93;;
44456;SDS011;30159;49.316;8.558;2022-10-19T05:03:35;27.07;;;7.93;;
44456;SDS011;30159;49.316;8.558;2022-10-19T05:06:01;39.50;;;7.87;;
44456;SDS011;30159;49.316;8.558;2022-10-19T05:08:30;37.63;;;7.53;;
44456;SDS011;30159;49.316;8.558;2022-10-19T05:10:59;35.60;;;8.10;;
44456;SDS011;30159;49.316;8.558;2022-10-19T05:13:33;13.43;;;6.07;;
44456;SDS011;30159;49.316;8.558;2022-10-19T05:16:01;27.03;;;5.53;;
44456;SDS011;30159;49.316;8.558;2022-10-19T05:18:29;35.20;;;8.03;;
44456;SDS011;30159;49.316;8.558;2022-10-19T05:20:59;16.10;;;7.40;;
44456;SDS011;30159;49.316;8.558;2022-10-19T05:23:27;41.17;;;6.23;;
44456;SDS011;30159;49.316;8.558;2022-10-19T05:25:59;24.93;;;7.57;;
44456;SDS011;30159;49.316;8.558;2022-10-19T05:28:26;48.90;;;8.10;;
44456;SDS011;30159;49.316;8.558;2022-10-19T05:30:53;30.70;;;6.30;;
44456;SDS011;30159;49.316;8.558;2022-10-19T05:33:20;39.40;;;7.07;;
44456;SDS011;30159;49.316;8.558;2022-10-19T05:35:46;38.97;;;7.50;;
44456;SDS011;30159;49.316;8.558;2022-10-19T05:38:13;32.63;;;7.67;;
44456;SDS011;30159;49.316;8.558;2022-10-19T05:40:43;15.20;;;6.10;;
44456;SDS011;30159;49.316;8.558;2022-10-19T05:43:11;28.23;;;7.00;;
44456;SDS011;30159;49.316;8.558;2022-10-19T05:45:38;30.47;;;7.80;;
44456;SDS011;30159;49.316;8.558;2022-10-19T05:48:04;13.20;;;6.83;;
44456;SDS011;30159;49.316;8.558;2022-10-19T05:50:31;12.67;;;7.10;;
44456;SDS011;30159;49.316;8.558;2022-10-19T05:52:57;13.33;;;6.30;;
44456;SDS011;30159;49.316;8.558;2022-10-19T05:55:24;12.03;;;5.87;;
44456;SDS011;30159;49.316;8.558;2022-10-19T05:57:50;6.83;;;5.10;;
44456;SDS011;30159;49.316;8.558;2022-10-19T06:00:19;8.47;;;5.07;;
44456;SDS011;30159;49.316;8.558;2022-10-19T06:02:45;7.30;;;5.40;;
44456;SDS011;30159;49.316;8.558;2022-10-19T06:05:12;8.30;;;6.20;;
44456;SDS011;30159;49.316;8.558;2022-10-19T06:07:38;10.13;;;5.43;;
44456;SDS011;30159;49.316;8.558;2022-10-19T06:10:05;7.23;;;5.17;;
44456;SDS011;30159;49.316;8.558;2022-10-19T06:12:34;7.67;;;6.80;;
44456;SDS011;30159;49.316;8.558;2022-10-19T06:15:00;9.30;;;6.40;;
44456;SDS011;30159;49.316;8.558;2022-10-19T06:17:28;10.00;;;6.37;;
44456;SDS011;30159;49.316;8.558;2022-10-19T06:19:55;8.33;;;5.73;;
44456;SDS011;30159;49.316;8.558;2022-10-19T06:22:21;7.60;;;5.40;;
44456;SDS011;30159;49.316;8.558;2022-10-19T06:24:48;7.10;;;5.57;;
44456;SDS011;30159;49.316;8.558;2022-10-19T06:27:15;14.40;;;6.30;;
44456;SDS011;30159;49.316;8.558;2022-10-19T06:29:41;12.93;;;6.60;;
44456;SDS011;30159;49.316;8.558;2022-10-19T06:32:08;9.87;;;6.50;;
44456;SDS011;30159;49.316;8.558;2022-10-19T06:34:36;7.83;;;6.00;;
44456;SDS011;30159;49.316;8.558;2022-10-19T06:37:02;8.80;;;5.00;;
44456;SDS011;30159;49.316;8.558;2022-10-19T06:39:29;9.10;;;5.73;;
44456;SDS011;30159;49.316;8.558;2022-10-19T06:41:55;8.73;;;5.97;;
44456;SDS011;30159;49.316;8.558;2022-10-19T06:44:22;9.13;;;6.20;;
44456;SDS011;30159;49.316;8.558;2022-10-19T06:46:48;6.63;;;5.00;;
44456;SDS011;30159;49.316;8.558;2022-10-19T06:49:15;6.50;;;5.50;;
44456;SDS011;30159;49.316;8.558;2022-10-19T06:51:43;8.00;;;5.33;;
44456;SDS011;30159;49.316;8.558;2022-10-19T06:54:09;9.43;;;5.30;;
44456;SDS011;30159;49.316;8.558;2022-10-19T06:56:36;8.90;;;5.53;;
44456;SDS011;30159;49.316;8.558;2022-10-19T06:59:02;6.27;;;4.63;;
44456;SDS011;30159;49.316;8.558;2022-10-19T07:01:29;4.23;;;3.83;;
44456;SDS011;30159;49.316;8.558;2022-10-19T07:03:56;5.60;;;4.90;;
44456;SDS011;30159;49.316;8.558;2022-10-19T07:06:23;7.20;;;4.83;;
44456;SDS011;30159;49.316;8.558;2022-10-19T07:08:53;6.10;;;5.50;;
44456;SDS011;30159;49.316;8.558;2022-10-19T07:11:19;5.07;;;4.50;;
44456;SDS011;30159;49.316;8.558;2022-10-19T07:13:47;6.33;;;4.60;;
44456;SDS011;30159;49.316;8.558;2022-10-19T07:16:15;4.60;;;4.20;;
44456;SDS011;30159;49.316;8.558;2022-10-19T07:18:42;9.27;;;4.37;;
44456;SDS011;30159;49.316;8.558;2022-10-19T07:21:10;8.80;;;5.47;;
44456;SDS011;30159;49.316;8.558;2022-10-19T07:23:39;5.60;;;4.60;;
44456;SDS011;30159;49.316;8.558;2022-10-19T07:26:10;6.40;;;5.30;;
44456;SDS011;30159;49.316;8.558;2022-10-19T07:28:38;7.00;;;5.10;;
44456;SDS011;30159;49.316;8.558;2022-10-19T07:31:06;8.03;;;3.87;;
44456;SDS011;30159;49.316;8.558;2022-10-19T07:33:34;5.20;;;4.30;;
44456;SDS011;30159;49.316;8.558;2022-10-19T07:36:03;4.63;;;4.10;;
44456;SDS011;30159;49.316;8.558;2022-10-19T07:38:31;4.53;;;4.00;;
44456;SDS011;30159;49.316;8.558;2022-10-19T07:40:59;3.80;;;3.50;;
44456;SDS011;30159;49.316;8.558;2022-10-19T07:43:28;4.03;;;3.73;;
44456;SDS011;30159;49.316;8.558;2022-10-19T07:45:58;4.67;;;2.80;;
44456;SDS011;30159;49.316;8.558;2022-10-19T07:48:26;3.67;;;2.97;;
44456;SDS011;30159;49.316;8.558;2022-10-19T07:50:53;2.77;;;2.57;;
44456;SDS011;30159;49.316;8.558;2022-10-19T07:53:20;3.10;;;2.87;;
44456;SDS011;30159;49.316;8.558;2022-10-19T07:55:47;2.70;;;2.50;;
44456;SDS011;30159;49.316;8.558;2022-10-19T07:58:13;3.13;;;2.83;;
44456;SDS011;30159;49.316;8.558;2022-10-19T08:00:41;3.43;;;3.13;;
44456;SDS011;30159;49.316;8.558;2022-10-19T08:03:08;7.10;;;3.03;;
44456;SDS011;30159;49.316;8.558;2022-10-19T08:05:34;3.30;;;3.00;;
44456;SDS011;30159;49.316;8.558;2022-10-19T08:08:01;3.03;;;2.83;;
44456;SDS011;30159;49.316;8.558;2022-10-19T08:10:28;3.13;;;2.93;;
44456;SDS011;30159;49.316;8.558;2022-10-19T08:12:55;3.90;;;2.77;;
44456;SDS011;30159;49.316;8.558;2022-10-19T08:15:22;5.00;;;2.70;;
44456;SDS011;30159;49.316;8.558;2022-10-19T08:17:51;2.93;;;2.63;;
44456;SDS011;30159;49.316;8.558;2022-10-19T08:20:18;2.73;;;2.53;;
44456;SDS011;30159;49.316;8.558;2022-10-19T08:22:44;3.67;;;3.10;;
44456;SDS011;30159;49.316;8.558;2022-10-19T08:25:11;3.30;;;3.07;;
44456;SDS011;30159;49.316;8.558;2022-10-19T08:27:38;4.90;;;2.93;;
44456;SDS011;30159;49.316;8.558;2022-10-19T08:30:05;3.00;;;2.77;;
44456;SDS011;30159;49.316;8.558;2022-10-19T08:32:32;3.50;;;3.20;;
44456;SDS011;30159;49.316;8.558;2022-10-19T08:35:00;3.57;;;3.27;;
44456;SDS011;30159;49.316;8.558;2022-10-19T08:37:27;3.83;;;2.90;;
44456;SDS011;30159;49.316;8.558;2022-10-19T08:39:53;3.80;;;3.47;;
44456;SDS011;30159;49.316;8.558;2022-10-19T08:42:21;5.90;;;3.40;;
44456;SDS011;30159;49.316;8.558;2022-10-19T08:44:59;4.13;;;3.83;;
44456;SDS011;30159;49.316;8.558;2022-10-19T08:47:42;3.23;;;2.93;;
44456;SDS011;30159;49.316;8.558;2022-10-19T08:50:20;7.90;;;3.80;;
44456;SDS011;30159;49.316;8.558;2022-10-19T08:52:50;4.40;;;3.77;;
44456;SDS011;30159;49.316;8.558;2022-10-19T08:55:23;5.07;;;3.40;;
44456;SDS011;30159;49.316;8.558;2022-10-19T08:57:59;3.97;;;3.63;;
44456;SDS011;30159;49.316;8.558;2022-10-19T09:00:37;4.27;;;3.87;;
44456;SDS011;30159;49.316;8.558;2022-10-19T09:03:10;5.07;;;4.07;;
44456;SDS011;30159;49.316;8.558;2022-10-19T09:05:47;3.67;;;3.33;;
44456;SDS011;30159;49.316;8.558;2022-10-19T09:08:18;3.50;;;3.00;;
44456;SDS011;30159;49.316;8.558;2022-10-19T09:10:46;3.60;;;3.30;;
44456;SDS011;30159;49.316;8.558;2022-10-19T09:13:16;3.50;;;3.20;;
44456;SDS011;30159;49.316;8.558;2022-10-19T09:15:48;2.70;;;2.50;;
44456;SDS011;30159;49.316;8.558;2022-10-19T09:18:20;3.97;;;3.07;;
44456;SDS011;30159;49.316;8.558;2022-10-19T09:20:49;3.63;;;3.33;;
44456;SDS011;30159;49.316;8.558;2022-10-19T09:23:20;2.90;;;2.30;;
44456;SDS011;30159;49.316;8.558;2022-10-19T09:25:53;4.43;;;3.23;;
44456;SDS011;30159;49.316;8.558;2022-10-19T09:31:12;4.10;;;2.73;;
44456;SDS011;30159;49.316;8.558;2022-10-19T09:33:42;2.70;;;2.50;;
44456;SDS011;30159;49.316;8.558;2022-10-19T09:36:13;2.23;;;2.03;;
44456;SDS011;30159;49.316;8.558;2022-10-19T09:38:40;3.60;;;3.30;;
44456;SDS011;30159;49.316;8.558;2022-10-19T09:41:11;3.10;;;2.27;;
44456;SDS011;30159;49.316;8.558;2022-10-19T09:43:43;3.40;;;3.10;;
44456;SDS011;30159;49.316;8.558;2022-10-19T09:46:17;2.33;;;2.13;;
44456;SDS011;30159;49.316;8.558;2022-10-19T09:48:51;2.80;;;2.60;;
44456;SDS011;30159;49.316;8.558;2022-10-19T09:51:20;3.40;;;3.10;;
44456;SDS011;30159;49.316;8.558;2022-10-19T09:53:48;4.40;;;3.20;;
44456;SDS011;30159;49.316;8.558;2022-10-19T09:56:17;3.43;;;2.90;;
44456;SDS011;30159;49.316;8.558;2022-10-19T09:58:46;3.10;;;2.50;;
44456;SDS011;30159;49.316;8.558;2022-10-19T10:01:27;3.10;;;2.80;;
44456;SDS011;30159;49.316;8.558;2022-10-19T10:04:03;3.10;;;2.90;;
44456;SDS011;30159;49.316;8.558;2022-10-19T10:06:32;2.83;;;2.50;;
44456;SDS011;30159;49.316;8.558;2022-10-19T10:08:59;3.17;;;2.97;;
44456;SDS011;30159;49.316;8.558;2022-10-19T10:11:28;3.40;;;3.20;;
44456;SDS011;30159;49.316;8.558;2022-10-19T10:13:57;2.70;;;2.50;;
44456;SDS011;30159;49.316;8.558;2022-10-19T10:16:30;2.40;;;2.20;;
44456;SDS011;30159;49.316;8.558;2022-10-19T10:19:01;3.17;;;2.97;;
44456;SDS011;30159;49.316;8.558;2022-10-19T10:21:30;3.20;;;2.60;;
44456;SDS011;30159;49.316;8.558;2022-10-19T10:24:02;2.10;;;1.90;;
44456;SDS011;30159;49.316;8.558;2022-10-19T10:26:31;2.70;;;2.50;;
44456;SDS011;30159;49.316;8.558;2022-10-19T10:29:02;3.87;;;3.57;;
44456;SDS011;30159;49.316;8.558;2022-10-19T10:31:42;3.17;;;2.97;;
44456;SDS011;30159;49.316;8.558;2022-10-19T10:34:10;3.67;;;3.37;;
44456;SDS011;30159;49.316;8.558;2022-10-19T10:36:48;3.17;;;2.97;;
44456;SDS011;30159;49.316;8.558;2022-10-19T10:39:16;3.60;;;3.30;;
44456;SDS011;30159;49.316;8.558;2022-10-19T10:41:44;2.93;;;2.73;;
44456;SDS011;30159;49.316;8.558;2022-10-19T10:44:16;3.67;;;3.37;;
44456;SDS011;30159;49.316;8.558;2022-10-19T10:46:49;4.30;;;3.60;;
44456;SDS011;30159;49.316;8.558;2022-10-19T10:49:19;2.70;;;2.50;;
44456;SDS011;30159;49.316;8.558;2022-10-19T10:51:49;2.60;;;2.40;;
44456;SDS011;30159;49.316;8.558;2022-10-19T10:54:20;2.67;;;2.47;;
44456;SDS011;30159;49.316;8.558;2022-10-19T10:56:56;3.30;;;2.30;;
44456;SDS011;30159;49.316;8.558;2022-10-19T10:59:29;2.73;;;2.53;;
44456;SDS011;30159;49.316;8.558;2022-10-19T11:01:59;2.70;;;2.50;;
44456;SDS011;30159;49.316;8.558;2022-10-19T11:04:29;3.30;;;2.90;;
44456;SDS011;30159;49.316;8.558;2022-10-19T11:07:03;1.93;;;1.83;;
44456;SDS011;30159;49.316;8.558;2022-10-19T11:09:41;2.30;;;2.20;;
44456;SDS011;30159;49.316;8.558;2022-10-19T11:12:10;2.47;;;2.30;;
44456;SDS011;30159;49.316;8.558;2022-10-19T11:14:42;2.50;;;2.30;;
44456;SDS011;30159;49.316;8.558;2022-10-19T11:17:13;2.27;;;2.07;;
44456;SDS011;30159;49.316;8.558;2022-10-19T11:19:43;2.67;;;2.47;;
44456;SDS011;30159;49.316;8.558;2022-10-19T11:22:15;2.27;;;2.17;;
44456;SDS011;30159;49.316;8.558;2022-10-19T11:24:49;3.13;;;2.93;;
44456;SDS011;30159;49.316;8.558;2022-10-19T11:27:27;3.20;;;2.10;;
44456;SDS011;30159;49.316;8.558;2022-10-19T11:30:07;2.27;;;2.10;;
44456;SDS011;30159;49.316;8.558;2022-10-19T11:32:39;1.90;;;1.80;;
44456;SDS011;30159;49.316;8.558;2022-10-19T11:35:16;2.47;;;2.27;;
44456;SDS011;30159;49.316;8.558;2022-10-19T11:37:56;1.90;;;1.80;;
44456;SDS011;30159;49.316;8.558;2022-10-19T11:40:33;2.03;;;1.83;;
44456;SDS011;30159;49.316;8.558;2022-10-19T11:43:04;2.03;;;1.93;;
44456;SDS011;30159;49.316;8.558;2022-10-19T11:45:43;2.00;;;1.70;;
44456;SDS011;30159;49.316;8.558;2022-10-19T11:48:20;2.20;;;2.00;;
44456;SDS011;30159;49.316;8.558;2022-10-19T11:51:00;1.70;;;1.60;;
44456;SDS011;30159;49.316;8.558;2022-10-19T11:53:34;2.40;;;2.20;;
44456;SDS011;30159;49.316;8.558;2022-10-19T11:56:11;1.87;;;1.77;;
44456;SDS011;30159;49.316;8.558;2022-10-19T11:58:47;4.10;;;1.70;;
44456;SDS011;30159;49.316;8.558;2022-10-19T12:01:25;2.03;;;1.83;;
44456;SDS011;30159;49.316;8.558;2022-10-19T12:04:15;1.60;;;1.50;;
44456;SDS011;30159;49.316;8.558;2022-10-19T12:07:09;1.70;;;1.60;;
44456;SDS011;30159;49.316;8.558;2022-10-19T12:10:00;1.80;;;1.70;;
44456;SDS011;30159;49.316;8.558;2022-10-19T12:12:32;2.03;;;1.60;;
44456;SDS011;30159;49.316;8.558;2022-10-19T12:15:04;1.90;;;1.70;;
44456;SDS011;30159;49.316;8.558;2022-10-19T12:17:42;3.90;;;2.00;;
44456;SDS011;30159;49.316;8.558;2022-10-19T12:20:14;2.40;;;2.30;;
44456;SDS011;30159;49.316;8.558;2022-10-19T12:22:46;4.80;;;2.50;;
44456;SDS011;30159;49.316;8.558;2022-10-19T12:25:15;2.53;;;2.20;;
44456;SDS011;30159;49.316;8.558;2022-10-19T12:27:44;5.33;;;1.97;;
44456;SDS011;30159;49.316;8.558;2022-10-19T12:30:14;1.90;;;1.80;;
44456;SDS011;30159;49.316;8.558;2022-10-19T12:32:45;2.10;;;2.00;;
44456;SDS011;30159;49.316;8.558;2022-10-19T12:35:23;2.03;;;1.93;;
44456;SDS011;30159;49.316;8.558;2022-10-19T12:38:02;2.60;;;2.40;;
44456;SDS011;30159;49.316;8.558;2022-10-19T12:40:33;2.67;;;2.47;;
44456;SDS011;30159;49.316;8.558;2022-10-19T12:43:06;2.60;;;2.40;;
44456;SDS011;30159;49.316;8.558;2022-10-19T12:45:36;2.80;;;2.60;;
44456;SDS011;30159;49.316;8.558;2022-10-19T12:48:16;2.73;;;2.53;;
44456;SDS011;30159;49.316;8.558;2022-10-19T12:51:01;2.40;;;2.20;;
44456;SDS011;30159;49.316;8.558;2022-10-19T12:53:30;2.23;;;2.13;;
44456;SDS011;30159;49.316;8.558;2022-10-19T12:56:04;2.10;;;2.00;;
44456;SDS011;30159;49.316;8.558;2022-10-19T12:58:43;1.90;;;1.80;;
44456;SDS011;30159;49.316;8.558;2022-10-19T13:01:21;2.57;;;2.37;;
44456;SDS011;30159;49.316;8.558;2022-10-19T13:03:52;1.73;;;1.63;;
44456;SDS011;30159;49.316;8.558;2022-10-19T13:06:32;2.03;;;1.60;;
44456;SDS011;30159;49.316;8.558;2022-10-19T13:09:02;2.13;;;2.00;;
44456;SDS011;30159;49.316;8.558;2022-10-19T13:11:32;2.20;;;2.10;;
44456;SDS011;30159;49.316;8.558;2022-10-19T13:14:01;2.20;;;2.10;;
44456;SDS011;30159;49.316;8.558;2022-10-19T13:16:40;1.60;;;1.50;;
44456;SDS011;30159;49.316;8.558;2022-10-19T13:19:24;1.73;;;1.63;;
44456;SDS011;30159;49.316;8.558;2022-10-19T13:22:02;1.70;;;1.60;;
44456;SDS011;30159;49.316;8.558;2022-10-19T13:28:00;1.70;;;1.60;;
44456;SDS011;30159;49.316;8.558;2022-10-19T13:31:02;1.60;;;1.50;;
44456;SDS011;30159;49.316;8.558;2022-10-19T13:33:48;2.10;;;2.00;;
44456;SDS011;30159;49.316;8.558;2022-10-19T13:36:15;1.70;;;1.60;;
44456;SDS011;30159;49.316;8.558;2022-10-19T13:38:44;1.90;;;1.80;;
44456;SDS011;30159;49.316;8.558;2022-10-19T13:41:14;1.80;;;1.70;;
44456;SDS011;30159;49.316;8.558;2022-10-19T13:46:47;1.90;;;1.80;;
44456;SDS011;30159;49.316;8.558;2022-10-19T13:49:23;2.00;;;1.90;;
44456;SDS011;30159;49.316;8.558;2022-10-19T13:52:08;1.60;;;1.50;;
44456;SDS011;30159;49.316;8.558;2022-10-19T13:57:53;1.77;;;1.67;;
44456;SDS011;30159;49.316;8.558;2022-10-19T14:00:49;2.13;;;1.43;;
44456;SDS011;30159;49.316;8.558;2022-10-19T14:03:32;1.73;;;1.63;;
44456;SDS011;30159;49.316;8.558;2022-10-19T14:06:18;1.90;;;1.80;;
44456;SDS011;30159;49.316;8.558;2022-10-19T14:08:57;3.50;;;1.83;;
44456;SDS011;30159;49.316;8.558;2022-10-19T14:11:44;1.73;;;1.60;;
44456;SDS011;30159;49.316;8.558;2022-10-19T14:14:14;2.40;;;2.20;;
44456;SDS011;30159;49.316;8.558;2022-10-19T14:16:47;2.37;;;2.17;;
44456;SDS011;30159;49.316;8.558;2022-10-19T14:19:20;2.63;;;2.43;;
44456;SDS011;30159;49.316;8.558;2022-10-19T14:21:51;2.00;;;1.87;;
44456;SDS011;30159;49.316;8.558;2022-10-19T14:24:19;1.87;;;1.77;;
44456;SDS011;30159;49.316;8.558;2022-10-19T14:26:53;2.10;;;1.90;;
44456;SDS011;30159;49.316;8.558;2022-10-19T14:29:20;2.10;;;1.90;;
44456;SDS011;30159;49.316;8.558;2022-10-19T14:31:47;2.37;;;1.83;;
44456;SDS011;30159;49.316;8.558;2022-10-19T14:34:13;1.80;;;1.70;;
44456;SDS011;30159;49.316;8.558;2022-10-19T14:36:42;2.20;;;2.03;;
44456;SDS011;30159;49.316;8.558;2022-10-19T14:39:20;6.80;;;2.37;;
44456;SDS011;30159;49.316;8.558;2022-10-19T14:41:52;2.30;;;2.10;;
44456;SDS011;30159;49.316;8.558;2022-10-19T14:44:26;2.37;;;2.17;;
44456;SDS011;30159;49.316;8.558;2022-10-19T14:46:59;2.50;;;2.30;;
44456;SDS011;30159;49.316;8.558;2022-10-19T14:49:26;2.50;;;2.30;;
44456;SDS011;30159;49.316;8.558;2022-10-19T14:51:53;2.13;;;1.93;;
44456;SDS011;30159;49.316;8.558;2022-10-19T14:54:26;1.67;;;1.57;;
44456;SDS011;30159;49.316;8.558;2022-10-19T14:56:58;2.17;;;2.07;;
44456;SDS011;30159;49.316;8.558;2022-10-19T14:59:30;2.37;;;2.17;;
44456;SDS011;30159;49.316;8.558;2022-10-19T15:02:01;1.50;;;1.40;;
44456;SDS011;30159;49.316;8.558;2022-10-19T15:04:36;1.90;;;1.80;;
44456;SDS011;30159;49.316;8.558;2022-10-19T15:07:04;2.20;;;2.10;;
44456;SDS011;30159;49.316;8.558;2022-10-19T15:09:43;2.20;;;2.00;;
44456;SDS011;30159;49.316;8.558;2022-10-19T15:12:19;2.27;;;2.17;;
44456;SDS011;30159;49.316;8.558;2022-10-19T15:14:51;1.87;;;1.77;;